sensor_id;sensor_type;location;lat;lon;timestamp;P1;durP1;ratioP1;P2;durP2;ratioP2
73515;SDS011;61763;51.416;5.442;2023-08-01T00:00:31;4.20;;;2.08;;
73515;SDS011;61763;51.416;5.442;2023-08-01T00:02:56;4.10;;;1.90;;
73515;SDS011;61763;51.416;5.442;2023-08-01T00:05:22;7.55;;;3.42;;
73515;SDS011;61763;51.416;5.442;2023-08-01T00:07:47;6.40;;;3.40;;
73515;SDS011;61763;51.416;5.442;2023-08-01T00:10:13;7.03;;;3.75;;
73515;SDS011;61763;51.416;5.442;2023-08-01T00:12:38;8.88;;;4.43;;
73515;SDS011;61763;51.416;5.442;2023-08-01T00:15:03;8.20;;;3.85;;
73515;SDS011;61763;51.416;5.442;2023-08-01T00:17:29;9.15;;;4.78;;
73515;SDS011;61763;51.416;5.442;2023-08-01T00:19:55;10.43;;;4.47;;
73515;SDS011;61763;51.416;5.442;2023-08-01T00:22:20;10.18;;;5.57;;
73515;SDS011;61763;51.416;5.442;2023-08-01T00:24:46;12.77;;;6.10;;
73515;SDS011;61763;51.416;5.442;2023-08-01T00:27:12;11.77;;;5.90;;
73515;SDS011;61763;51.416;5.442;2023-08-01T00:29:38;15.88;;;7.20;;
73515;SDS011;61763;51.416;5.442;2023-08-01T00:32:05;15.18;;;7.28;;
73515;SDS011;61763;51.416;5.442;2023-08-01T00:34:30;18.13;;;9.98;;
73515;SDS011;61763;51.416;5.442;2023-08-01T00:36:56;18.02;;;9.68;;
73515;SDS011;61763;51.416;5.442;2023-08-01T00:39:22;15.70;;;9.35;;
73515;SDS011;61763;51.416;5.442;2023-08-01T00:41:47;17.85;;;10.75;;
73515;SDS011;61763;51.416;5.442;2023-08-01T00:44:13;20.67;;;9.57;;
73515;SDS011;61763;51.416;5.442;2023-08-01T00:46:38;20.83;;;10.98;;
73515;SDS011;61763;51.416;5.442;2023-08-01T00:49:05;18.45;;;8.27;;
73515;SDS011;61763;51.416;5.442;2023-08-01T00:51:33;17.55;;;9.73;;
73515;SDS011;61763;51.416;5.442;2023-08-01T00:53:59;19.60;;;9.70;;
73515;SDS011;61763;51.416;5.442;2023-08-01T00:56:25;20.50;;;11.05;;
73515;SDS011;61763;51.416;5.442;2023-08-01T00:58:50;22.77;;;11.65;;
73515;SDS011;61763;51.416;5.442;2023-08-01T01:01:16;23.05;;;11.77;;
73515;SDS011;61763;51.416;5.442;2023-08-01T01:03:41;23.08;;;11.52;;
73515;SDS011;61763;51.416;5.442;2023-08-01T01:09:14;23.83;;;10.18;;
73515;SDS011;61763;51.416;5.442;2023-08-01T01:11:46;18.45;;;8.65;;
73515;SDS011;61763;51.416;5.442;2023-08-01T01:14:13;17.90;;;8.35;;
73515;SDS011;61763;51.416;5.442;2023-08-01T01:16:38;16.45;;;7.65;;
73515;SDS011;61763;51.416;5.442;2023-08-01T01:19:06;19.02;;;10.15;;
73515;SDS011;61763;51.416;5.442;2023-08-01T01:21:35;19.42;;;9.48;;
73515;SDS011;61763;51.416;5.442;2023-08-01T01:24:03;21.40;;;9.23;;
73515;SDS011;61763;51.416;5.442;2023-08-01T01:26:31;14.23;;;6.47;;
73515;SDS011;61763;51.416;5.442;2023-08-01T01:28:58;18.27;;;7.63;;
73515;SDS011;61763;51.416;5.442;2023-08-01T01:31:24;18.88;;;7.68;;
73515;SDS011;61763;51.416;5.442;2023-08-01T01:33:50;18.67;;;8.30;;
73515;SDS011;61763;51.416;5.442;2023-08-01T01:36:15;14.70;;;6.35;;
73515;SDS011;61763;51.416;5.442;2023-08-01T01:38:41;16.55;;;5.60;;
73515;SDS011;61763;51.416;5.442;2023-08-01T01:41:06;18.52;;;7.97;;
73515;SDS011;61763;51.416;5.442;2023-08-01T01:43:31;23.67;;;6.18;;
73515;SDS011;61763;51.416;5.442;2023-08-01T01:45:57;17.15;;;6.75;;
73515;SDS011;61763;51.416;5.442;2023-08-01T01:48:22;17.92;;;7.18;;
73515;SDS011;61763;51.416;5.442;2023-08-01T01:50:47;21.70;;;7.65;;
73515;SDS011;61763;51.416;5.442;2023-08-01T01:53:13;18.90;;;8.55;;
73515;SDS011;61763;51.416;5.442;2023-08-01T01:55:38;18.33;;;7.63;;
73515;SDS011;61763;51.416;5.442;2023-08-01T01:58:05;22.23;;;8.65;;
73515;SDS011;61763;51.416;5.442;2023-08-01T02:00:31;17.83;;;7.13;;
73515;SDS011;61763;51.416;5.442;2023-08-01T02:02:56;19.42;;;7.32;;
73515;SDS011;61763;51.416;5.442;2023-08-01T02:05:21;21.88;;;9.73;;
73515;SDS011;61763;51.416;5.442;2023-08-01T02:07:47;23.33;;;9.40;;
73515;SDS011;61763;51.416;5.442;2023-08-01T02:10:12;21.52;;;7.50;;
73515;SDS011;61763;51.416;5.442;2023-08-01T02:12:38;26.58;;;10.95;;
73515;SDS011;61763;51.416;5.442;2023-08-01T02:15:03;23.88;;;8.27;;
73515;SDS011;61763;51.416;5.442;2023-08-01T02:17:29;22.88;;;8.43;;
73515;SDS011;61763;51.416;5.442;2023-08-01T02:19:56;25.67;;;9.50;;
73515;SDS011;61763;51.416;5.442;2023-08-01T02:22:22;25.50;;;8.90;;
73515;SDS011;61763;51.416;5.442;2023-08-01T02:24:49;25.27;;;8.52;;
73515;SDS011;61763;51.416;5.442;2023-08-01T02:27:15;32.85;;;9.43;;
73515;SDS011;61763;51.416;5.442;2023-08-01T02:29:40;26.05;;;10.93;;
73515;SDS011;61763;51.416;5.442;2023-08-01T02:32:05;22.63;;;9.27;;
73515;SDS011;61763;51.416;5.442;2023-08-01T02:34:31;26.58;;;11.23;;
73515;SDS011;61763;51.416;5.442;2023-08-01T02:36:56;33.33;;;10.13;;
73515;SDS011;61763;51.416;5.442;2023-08-01T02:39:22;28.20;;;10.00;;
73515;SDS011;61763;51.416;5.442;2023-08-01T02:41:47;31.20;;;11.85;;
73515;SDS011;61763;51.416;5.442;2023-08-01T02:44:13;26.23;;;10.48;;
73515;SDS011;61763;51.416;5.442;2023-08-01T02:46:40;33.40;;;10.88;;
73515;SDS011;61763;51.416;5.442;2023-08-01T02:49:06;33.80;;;13.32;;
73515;SDS011;61763;51.416;5.442;2023-08-01T02:51:31;29.95;;;12.10;;
73515;SDS011;61763;51.416;5.442;2023-08-01T02:53:56;29.25;;;10.98;;
73515;SDS011;61763;51.416;5.442;2023-08-01T02:56:22;28.15;;;10.55;;
73515;SDS011;61763;51.416;5.442;2023-08-01T02:58:47;29.52;;;11.43;;
73515;SDS011;61763;51.416;5.442;2023-08-01T03:01:12;35.08;;;14.07;;
73515;SDS011;61763;51.416;5.442;2023-08-01T03:03:38;32.70;;;13.15;;
73515;SDS011;61763;51.416;5.442;2023-08-01T03:06:04;31.95;;;14.05;;
73515;SDS011;61763;51.416;5.442;2023-08-01T03:08:30;34.00;;;13.82;;
73515;SDS011;61763;51.416;5.442;2023-08-01T03:10:56;30.17;;;11.85;;
73515;SDS011;61763;51.416;5.442;2023-08-01T03:13:23;36.92;;;14.27;;
73515;SDS011;61763;51.416;5.442;2023-08-01T03:15:48;39.63;;;15.02;;
73515;SDS011;61763;51.416;5.442;2023-08-01T03:18:13;38.05;;;14.73;;
73515;SDS011;61763;51.416;5.442;2023-08-01T03:20:39;38.03;;;15.27;;
73515;SDS011;61763;51.416;5.442;2023-08-01T03:23:05;35.00;;;13.32;;
73515;SDS011;61763;51.416;5.442;2023-08-01T03:25:30;40.92;;;14.75;;
73515;SDS011;61763;51.416;5.442;2023-08-01T03:27:56;43.60;;;15.35;;
73515;SDS011;61763;51.416;5.442;2023-08-01T03:30:21;38.92;;;14.70;;
73515;SDS011;61763;51.416;5.442;2023-08-01T03:32:47;38.53;;;14.50;;
73515;SDS011;61763;51.416;5.442;2023-08-01T03:35:13;35.63;;;14.93;;
73515;SDS011;61763;51.416;5.442;2023-08-01T03:37:41;38.58;;;16.02;;
73515;SDS011;61763;51.416;5.442;2023-08-01T03:40:07;34.53;;;14.63;;
73515;SDS011;61763;51.416;5.442;2023-08-01T03:42:35;31.00;;;13.88;;
73515;SDS011;61763;51.416;5.442;2023-08-01T03:45:01;32.20;;;13.90;;
73515;SDS011;61763;51.416;5.442;2023-08-01T03:47:27;30.23;;;12.68;;
73515;SDS011;61763;51.416;5.442;2023-08-01T03:49:52;33.88;;;12.77;;
73515;SDS011;61763;51.416;5.442;2023-08-01T03:52:18;33.78;;;14.13;;
73515;SDS011;61763;51.416;5.442;2023-08-01T03:54:44;37.50;;;13.50;;
73515;SDS011;61763;51.416;5.442;2023-08-01T03:57:09;37.38;;;16.95;;
73515;SDS011;61763;51.416;5.442;2023-08-01T03:59:35;43.25;;;14.80;;
73515;SDS011;61763;51.416;5.442;2023-08-01T04:02:01;35.30;;;14.60;;
73515;SDS011;61763;51.416;5.442;2023-08-01T04:04:26;36.30;;;14.60;;
73515;SDS011;61763;51.416;5.442;2023-08-01T04:06:51;29.77;;;13.38;;
73515;SDS011;61763;51.416;5.442;2023-08-01T04:09:17;34.00;;;14.60;;
73515;SDS011;61763;51.416;5.442;2023-08-01T04:11:42;34.70;;;15.95;;
73515;SDS011;61763;51.416;5.442;2023-08-01T04:14:07;31.60;;;12.75;;
73515;SDS011;61763;51.416;5.442;2023-08-01T04:16:33;36.55;;;13.15;;
73515;SDS011;61763;51.416;5.442;2023-08-01T04:18:59;33.83;;;15.10;;
73515;SDS011;61763;51.416;5.442;2023-08-01T04:21:24;38.22;;;13.93;;
73515;SDS011;61763;51.416;5.442;2023-08-01T04:23:49;37.90;;;15.18;;
73515;SDS011;61763;51.416;5.442;2023-08-01T04:26:15;27.67;;;11.13;;
73515;SDS011;61763;51.416;5.442;2023-08-01T04:28:40;36.25;;;12.13;;
73515;SDS011;61763;51.416;5.442;2023-08-01T04:31:05;32.15;;;12.00;;
73515;SDS011;61763;51.416;5.442;2023-08-01T04:33:31;32.83;;;13.68;;
73515;SDS011;61763;51.416;5.442;2023-08-01T04:35:56;36.90;;;13.55;;
73515;SDS011;61763;51.416;5.442;2023-08-01T04:38:22;23.92;;;11.23;;
73515;SDS011;61763;51.416;5.442;2023-08-01T04:40:47;35.83;;;13.63;;
73515;SDS011;61763;51.416;5.442;2023-08-01T04:43:13;32.70;;;11.95;;
73515;SDS011;61763;51.416;5.442;2023-08-01T04:45:38;26.58;;;11.43;;
73515;SDS011;61763;51.416;5.442;2023-08-01T04:48:03;31.65;;;11.13;;
73515;SDS011;61763;51.416;5.442;2023-08-01T04:50:29;28.55;;;13.43;;
73515;SDS011;61763;51.416;5.442;2023-08-01T04:52:54;28.45;;;12.27;;
73515;SDS011;61763;51.416;5.442;2023-08-01T04:55:20;27.65;;;12.23;;
73515;SDS011;61763;51.416;5.442;2023-08-01T04:57:45;27.10;;;12.18;;
73515;SDS011;61763;51.416;5.442;2023-08-01T05:00:11;32.15;;;10.95;;
73515;SDS011;61763;51.416;5.442;2023-08-01T05:02:37;27.90;;;11.52;;
73515;SDS011;61763;51.416;5.442;2023-08-01T05:05:02;22.77;;;10.13;;
73515;SDS011;61763;51.416;5.442;2023-08-01T05:07:28;22.27;;;9.32;;
73515;SDS011;61763;51.416;5.442;2023-08-01T05:09:54;30.30;;;13.32;;
73515;SDS011;61763;51.416;5.442;2023-08-01T05:12:19;26.20;;;10.75;;
73515;SDS011;61763;51.416;5.442;2023-08-01T05:14:45;28.17;;;12.73;;
73515;SDS011;61763;51.416;5.442;2023-08-01T05:17:10;27.15;;;10.80;;
73515;SDS011;61763;51.416;5.442;2023-08-01T05:19:35;28.65;;;11.90;;
73515;SDS011;61763;51.416;5.442;2023-08-01T05:22:01;22.20;;;10.90;;
73515;SDS011;61763;51.416;5.442;2023-08-01T05:24:26;25.17;;;11.15;;
73515;SDS011;61763;51.416;5.442;2023-08-01T05:26:52;23.17;;;9.88;;
73515;SDS011;61763;51.416;5.442;2023-08-01T05:29:17;26.88;;;10.13;;
73515;SDS011;61763;51.416;5.442;2023-08-01T05:31:43;24.30;;;10.50;;
73515;SDS011;61763;51.416;5.442;2023-08-01T05:34:08;26.70;;;11.57;;
73515;SDS011;61763;51.416;5.442;2023-08-01T05:36:34;27.75;;;10.30;;
73515;SDS011;61763;51.416;5.442;2023-08-01T05:38:59;28.45;;;11.63;;
73515;SDS011;61763;51.416;5.442;2023-08-01T05:41:24;26.80;;;10.10;;
73515;SDS011;61763;51.416;5.442;2023-08-01T05:43:51;21.40;;;10.20;;
73515;SDS011;61763;51.416;5.442;2023-08-01T05:46:16;23.23;;;10.10;;
73515;SDS011;61763;51.416;5.442;2023-08-01T05:48:42;26.65;;;9.32;;
73515;SDS011;61763;51.416;5.442;2023-08-01T05:51:07;24.52;;;10.45;;
73515;SDS011;61763;51.416;5.442;2023-08-01T05:53:33;23.10;;;10.23;;
73515;SDS011;61763;51.416;5.442;2023-08-01T05:55:58;22.65;;;10.77;;
73515;SDS011;61763;51.416;5.442;2023-08-01T05:58:24;26.85;;;10.70;;
73515;SDS011;61763;51.416;5.442;2023-08-01T06:00:49;19.45;;;8.73;;
73515;SDS011;61763;51.416;5.442;2023-08-01T06:03:15;24.02;;;10.80;;
73515;SDS011;61763;51.416;5.442;2023-08-01T06:05:41;18.73;;;9.20;;
73515;SDS011;61763;51.416;5.442;2023-08-01T06:08:07;20.98;;;8.98;;
73515;SDS011;61763;51.416;5.442;2023-08-01T06:10:33;20.80;;;10.70;;
73515;SDS011;61763;51.416;5.442;2023-08-01T06:12:59;20.75;;;9.68;;
73515;SDS011;61763;51.416;5.442;2023-08-01T06:15:25;21.88;;;11.50;;
73515;SDS011;61763;51.416;5.442;2023-08-01T06:17:50;15.85;;;8.68;;
73515;SDS011;61763;51.416;5.442;2023-08-01T06:20:15;21.52;;;10.65;;
73515;SDS011;61763;51.416;5.442;2023-08-01T06:22:41;21.23;;;10.10;;
73515;SDS011;61763;51.416;5.442;2023-08-01T06:25:07;20.75;;;9.93;;
73515;SDS011;61763;51.416;5.442;2023-08-01T06:27:33;21.30;;;9.02;;
73515;SDS011;61763;51.416;5.442;2023-08-01T06:29:59;20.63;;;11.13;;
73515;SDS011;61763;51.416;5.442;2023-08-01T06:32:24;20.20;;;10.82;;
73515;SDS011;61763;51.416;5.442;2023-08-01T06:34:50;16.58;;;9.73;;
73515;SDS011;61763;51.416;5.442;2023-08-01T06:37:15;14.80;;;6.93;;
73515;SDS011;61763;51.416;5.442;2023-08-01T06:39:40;18.83;;;8.82;;
73515;SDS011;61763;51.416;5.442;2023-08-01T06:42:06;16.92;;;8.10;;
73515;SDS011;61763;51.416;5.442;2023-08-01T06:44:31;16.40;;;9.15;;
73515;SDS011;61763;51.416;5.442;2023-08-01T06:46:56;20.20;;;8.93;;
73515;SDS011;61763;51.416;5.442;2023-08-01T06:49:22;18.50;;;7.55;;
73515;SDS011;61763;51.416;5.442;2023-08-01T06:51:47;16.23;;;7.17;;
73515;SDS011;61763;51.416;5.442;2023-08-01T06:54:12;17.05;;;7.28;;
73515;SDS011;61763;51.416;5.442;2023-08-01T06:56:38;16.70;;;7.43;;
73515;SDS011;61763;51.416;5.442;2023-08-01T06:59:03;17.00;;;6.70;;
73515;SDS011;61763;51.416;5.442;2023-08-01T07:01:28;15.95;;;7.35;;
73515;SDS011;61763;51.416;5.442;2023-08-01T07:03:54;15.10;;;9.13;;
73515;SDS011;61763;51.416;5.442;2023-08-01T07:06:20;16.70;;;7.15;;
73515;SDS011;61763;51.416;5.442;2023-08-01T07:08:45;15.18;;;9.50;;
73515;SDS011;61763;51.416;5.442;2023-08-01T07:11:11;18.73;;;7.53;;
73515;SDS011;61763;51.416;5.442;2023-08-01T07:13:36;15.65;;;8.15;;
73515;SDS011;61763;51.416;5.442;2023-08-01T07:16:01;12.02;;;6.07;;
73515;SDS011;61763;51.416;5.442;2023-08-01T07:18:27;13.68;;;5.88;;
73515;SDS011;61763;51.416;5.442;2023-08-01T07:21:02;12.10;;;7.25;;
73515;SDS011;61763;51.416;5.442;2023-08-01T07:23:28;12.20;;;6.78;;
73515;SDS011;61763;51.416;5.442;2023-08-01T07:25:54;12.30;;;5.95;;
73515;SDS011;61763;51.416;5.442;2023-08-01T07:28:19;9.88;;;5.63;;
73515;SDS011;61763;51.416;5.442;2023-08-01T07:30:45;12.38;;;6.70;;
73515;SDS011;61763;51.416;5.442;2023-08-01T07:33:10;12.85;;;8.10;;
73515;SDS011;61763;51.416;5.442;2023-08-01T07:35:35;13.23;;;4.80;;
73515;SDS011;61763;51.416;5.442;2023-08-01T07:38:01;14.02;;;7.85;;
73515;SDS011;61763;51.416;5.442;2023-08-01T07:40:26;8.53;;;4.93;;
73515;SDS011;61763;51.416;5.442;2023-08-01T07:42:51;12.30;;;5.93;;
73515;SDS011;61763;51.416;5.442;2023-08-01T07:45:17;10.90;;;5.10;;
73515;SDS011;61763;51.416;5.442;2023-08-01T07:50:09;8.73;;;3.97;;
73515;SDS011;61763;51.416;5.442;2023-08-01T07:52:35;8.77;;;4.05;;
73515;SDS011;61763;51.416;5.442;2023-08-01T07:55:01;9.00;;;4.30;;
73515;SDS011;61763;51.416;5.442;2023-08-01T07:57:26;8.43;;;3.65;;
73515;SDS011;61763;51.416;5.442;2023-08-01T07:59:52;8.30;;;4.30;;
73515;SDS011;61763;51.416;5.442;2023-08-01T08:02:18;10.07;;;5.57;;
73515;SDS011;61763;51.416;5.442;2023-08-01T08:04:43;7.40;;;3.08;;
73515;SDS011;61763;51.416;5.442;2023-08-01T08:07:09;12.13;;;5.75;;
73515;SDS011;61763;51.416;5.442;2023-08-01T08:09:34;10.27;;;4.70;;
73515;SDS011;61763;51.416;5.442;2023-08-01T08:11:59;11.90;;;7.68;;
73515;SDS011;61763;51.416;5.442;2023-08-01T08:14:25;11.90;;;5.03;;
73515;SDS011;61763;51.416;5.442;2023-08-01T08:16:51;10.38;;;6.07;;
73515;SDS011;61763;51.416;5.442;2023-08-01T08:19:16;11.10;;;5.70;;
73515;SDS011;61763;51.416;5.442;2023-08-01T08:21:42;13.40;;;8.00;;
73515;SDS011;61763;51.416;5.442;2023-08-01T08:24:07;16.30;;;6.75;;
73515;SDS011;61763;51.416;5.442;2023-08-01T08:26:33;12.60;;;6.22;;
73515;SDS011;61763;51.416;5.442;2023-08-01T08:29:02;12.23;;;6.43;;
73515;SDS011;61763;51.416;5.442;2023-08-01T08:31:28;17.05;;;9.07;;
73515;SDS011;61763;51.416;5.442;2023-08-01T08:33:53;16.77;;;8.45;;
73515;SDS011;61763;51.416;5.442;2023-08-01T08:36:18;10.55;;;5.20;;
73515;SDS011;61763;51.416;5.442;2023-08-01T08:38:44;12.70;;;6.88;;
73515;SDS011;61763;51.416;5.442;2023-08-01T08:41:32;15.43;;;6.53;;
73515;SDS011;61763;51.416;5.442;2023-08-01T08:43:59;15.48;;;5.30;;
73515;SDS011;61763;51.416;5.442;2023-08-01T08:46:28;10.13;;;6.90;;
73515;SDS011;61763;51.416;5.442;2023-08-01T08:48:55;12.10;;;5.40;;
73515;SDS011;61763;51.416;5.442;2023-08-01T08:51:22;10.90;;;6.68;;
73515;SDS011;61763;51.416;5.442;2023-08-01T08:53:49;9.48;;;4.55;;
73515;SDS011;61763;51.416;5.442;2023-08-01T08:56:18;10.00;;;6.00;;
73515;SDS011;61763;51.416;5.442;2023-08-01T08:58:44;10.15;;;4.88;;
73515;SDS011;61763;51.416;5.442;2023-08-01T09:01:12;7.70;;;3.30;;
73515;SDS011;61763;51.416;5.442;2023-08-01T09:03:37;9.75;;;4.43;;
73515;SDS011;61763;51.416;5.442;2023-08-01T09:06:37;7.55;;;4.32;;
73515;SDS011;61763;51.416;5.442;2023-08-01T09:09:05;6.97;;;2.85;;
73515;SDS011;61763;51.416;5.442;2023-08-01T09:11:39;6.15;;;3.20;;
73515;SDS011;61763;51.416;5.442;2023-08-01T09:14:06;7.25;;;4.18;;
73515;SDS011;61763;51.416;5.442;2023-08-01T09:16:32;8.82;;;4.93;;
73515;SDS011;61763;51.416;5.442;2023-08-01T09:18:58;10.70;;;4.03;;
73515;SDS011;61763;51.416;5.442;2023-08-01T09:21:23;7.32;;;3.60;;
73515;SDS011;61763;51.416;5.442;2023-08-01T09:23:50;8.05;;;3.67;;
73515;SDS011;61763;51.416;5.442;2023-08-01T09:26:17;9.05;;;3.60;;
73515;SDS011;61763;51.416;5.442;2023-08-01T09:28:54;6.10;;;2.47;;
73515;SDS011;61763;51.416;5.442;2023-08-01T09:31:31;8.77;;;3.90;;
73515;SDS011;61763;51.416;5.442;2023-08-01T09:34:23;8.07;;;2.45;;
73515;SDS011;61763;51.416;5.442;2023-08-01T09:36:50;8.15;;;3.40;;
73515;SDS011;61763;51.416;5.442;2023-08-01T09:39:17;5.13;;;2.92;;
73515;SDS011;61763;51.416;5.442;2023-08-01T09:41:45;5.35;;;1.73;;
73515;SDS011;61763;51.416;5.442;2023-08-01T09:44:11;6.45;;;2.88;;
73515;SDS011;61763;51.416;5.442;2023-08-01T09:46:40;4.38;;;2.13;;
73515;SDS011;61763;51.416;5.442;2023-08-01T09:49:10;6.43;;;2.13;;
73515;SDS011;61763;51.416;5.442;2023-08-01T09:51:48;4.90;;;2.50;;
73515;SDS011;61763;51.416;5.442;2023-08-01T09:54:15;6.10;;;1.60;;
73515;SDS011;61763;51.416;5.442;2023-08-01T09:56:45;6.18;;;1.35;;
73515;SDS011;61763;51.416;5.442;2023-08-01T09:59:12;5.18;;;2.47;;
73515;SDS011;61763;51.416;5.442;2023-08-01T10:01:41;7.00;;;2.22;;
73515;SDS011;61763;51.416;5.442;2023-08-01T10:04:09;5.25;;;2.45;;
73515;SDS011;61763;51.416;5.442;2023-08-01T10:06:37;3.92;;;2.13;;
73515;SDS011;61763;51.416;5.442;2023-08-01T10:09:03;6.07;;;2.53;;
73515;SDS011;61763;51.416;5.442;2023-08-01T10:11:30;5.72;;;2.20;;
73515;SDS011;61763;51.416;5.442;2023-08-01T10:13:59;4.90;;;2.72;;
73515;SDS011;61763;51.416;5.442;2023-08-01T10:16:25;5.53;;;1.23;;
73515;SDS011;61763;51.416;5.442;2023-08-01T10:18:51;5.05;;;2.35;;
73515;SDS011;61763;51.416;5.442;2023-08-01T10:21:16;5.40;;;1.83;;
73515;SDS011;61763;51.416;5.442;2023-08-01T10:23:43;3.92;;;1.92;;
73515;SDS011;61763;51.416;5.442;2023-08-01T10:26:11;3.85;;;2.30;;
73515;SDS011;61763;51.416;5.442;2023-08-01T10:28:38;5.38;;;1.23;;
73515;SDS011;61763;51.416;5.442;2023-08-01T10:31:14;5.30;;;2.25;;
73515;SDS011;61763;51.416;5.442;2023-08-01T10:33:41;6.47;;;2.03;;
73515;SDS011;61763;51.416;5.442;2023-08-01T10:36:15;5.53;;;0.70;;
73515;SDS011;61763;51.416;5.442;2023-08-01T10:38:58;4.25;;;1.92;;
73515;SDS011;61763;51.416;5.442;2023-08-01T10:41:26;5.45;;;1.25;;
73515;SDS011;61763;51.416;5.442;2023-08-01T10:49:18;3.20;;;0.93;;
73515;SDS011;61763;51.416;5.442;2023-08-01T10:51:47;6.05;;;1.33;;
73515;SDS011;61763;51.416;5.442;2023-08-01T10:54:22;3.42;;;1.08;;
73515;SDS011;61763;51.416;5.442;2023-08-01T10:56:49;4.07;;;1.65;;
73515;SDS011;61763;51.416;5.442;2023-08-01T10:59:16;7.70;;;1.58;;
73515;SDS011;61763;51.416;5.442;2023-08-01T11:01:50;3.70;;;1.75;;
73515;SDS011;61763;51.416;5.442;2023-08-01T11:04:17;5.40;;;0.90;;
73515;SDS011;61763;51.416;5.442;2023-08-01T11:06:47;3.65;;;1.77;;
73515;SDS011;61763;51.416;5.442;2023-08-01T11:09:20;7.40;;;1.38;;
73515;SDS011;61763;51.416;5.442;2023-08-01T11:11:48;4.60;;;1.10;;
73515;SDS011;61763;51.416;5.442;2023-08-01T11:14:16;5.60;;;1.88;;
73515;SDS011;61763;51.416;5.442;2023-08-01T11:16:43;7.68;;;1.58;;
73515;SDS011;61763;51.416;5.442;2023-08-01T11:19:19;6.65;;;2.17;;
73515;SDS011;61763;51.416;5.442;2023-08-01T11:21:47;4.03;;;1.10;;
73515;SDS011;61763;51.416;5.442;2023-08-01T11:24:13;5.22;;;1.55;;
73515;SDS011;61763;51.416;5.442;2023-08-01T11:26:45;6.35;;;1.85;;
73515;SDS011;61763;51.416;5.442;2023-08-01T11:29:13;6.75;;;2.42;;
73515;SDS011;61763;51.416;5.442;2023-08-01T11:31:39;6.75;;;0.75;;
73515;SDS011;61763;51.416;5.442;2023-08-01T11:34:08;4.95;;;0.95;;
73515;SDS011;61763;51.416;5.442;2023-08-01T11:36:35;5.90;;;0.90;;
73515;SDS011;61763;51.416;5.442;2023-08-01T11:39:01;7.10;;;2.38;;
73515;SDS011;61763;51.416;5.442;2023-08-01T11:41:27;4.15;;;2.25;;
73515;SDS011;61763;51.416;5.442;2023-08-01T11:43:53;3.13;;;0.65;;
73515;SDS011;61763;51.416;5.442;2023-08-01T11:46:19;5.22;;;1.40;;
73515;SDS011;61763;51.416;5.442;2023-08-01T11:48:46;3.97;;;0.85;;
73515;SDS011;61763;51.416;5.442;2023-08-01T11:51:12;4.45;;;0.95;;
73515;SDS011;61763;51.416;5.442;2023-08-01T11:53:38;6.97;;;1.23;;
73515;SDS011;61763;51.416;5.442;2023-08-01T11:56:04;4.35;;;1.45;;
73515;SDS011;61763;51.416;5.442;2023-08-01T11:58:36;4.72;;;1.38;;
73515;SDS011;61763;51.416;5.442;2023-08-01T12:01:10;4.90;;;1.85;;
73515;SDS011;61763;51.416;5.442;2023-08-01T12:03:46;3.75;;;1.35;;
73515;SDS011;61763;51.416;5.442;2023-08-01T12:06:16;2.80;;;0.70;;
73515;SDS011;61763;51.416;5.442;2023-08-01T12:14:05;3.67;;;1.90;;
73515;SDS011;61763;51.416;5.442;2023-08-01T12:16:37;7.45;;;2.05;;
73515;SDS011;61763;51.416;5.442;2023-08-01T12:19:03;4.97;;;0.88;;
73515;SDS011;61763;51.416;5.442;2023-08-01T12:21:29;4.75;;;1.40;;
73515;SDS011;61763;51.416;5.442;2023-08-01T12:23:55;2.10;;;0.77;;
73515;SDS011;61763;51.416;5.442;2023-08-01T12:26:21;4.40;;;1.73;;
73515;SDS011;61763;51.416;5.442;2023-08-01T12:28:48;7.65;;;2.80;;
73515;SDS011;61763;51.416;5.442;2023-08-01T12:31:17;5.32;;;1.58;;
73515;SDS011;61763;51.416;5.442;2023-08-01T12:33:45;5.28;;;2.58;;
73515;SDS011;61763;51.416;5.442;2023-08-01T12:36:12;3.70;;;0.95;;
73515;SDS011;61763;51.416;5.442;2023-08-01T12:38:37;6.03;;;1.15;;
73515;SDS011;61763;51.416;5.442;2023-08-01T12:41:03;4.40;;;1.90;;
73515;SDS011;61763;51.416;5.442;2023-08-01T12:43:29;5.60;;;2.22;;
73515;SDS011;61763;51.416;5.442;2023-08-01T12:45:56;4.28;;;1.60;;
73515;SDS011;61763;51.416;5.442;2023-08-01T12:48:23;5.85;;;2.53;;
73515;SDS011;61763;51.416;5.442;2023-08-01T12:50:49;4.05;;;0.77;;
73515;SDS011;61763;51.416;5.442;2023-08-01T12:53:14;4.47;;;1.85;;
73515;SDS011;61763;51.416;5.442;2023-08-01T12:55:43;4.68;;;2.03;;
73515;SDS011;61763;51.416;5.442;2023-08-01T12:58:09;5.15;;;1.67;;
73515;SDS011;61763;51.416;5.442;2023-08-01T13:00:35;2.67;;;0.63;;
73515;SDS011;61763;51.416;5.442;2023-08-01T13:03:00;4.00;;;1.85;;
73515;SDS011;61763;51.416;5.442;2023-08-01T13:05:25;2.75;;;0.90;;
73515;SDS011;61763;51.416;5.442;2023-08-01T13:07:51;3.08;;;1.60;;
73515;SDS011;61763;51.416;5.442;2023-08-01T13:10:16;3.85;;;1.45;;
73515;SDS011;61763;51.416;5.442;2023-08-01T13:12:42;5.68;;;1.98;;
73515;SDS011;61763;51.416;5.442;2023-08-01T13:15:08;4.63;;;1.55;;
73515;SDS011;61763;51.416;5.442;2023-08-01T13:17:34;4.47;;;1.30;;
73515;SDS011;61763;51.416;5.442;2023-08-01T13:19:59;3.95;;;1.50;;
73515;SDS011;61763;51.416;5.442;2023-08-01T13:22:25;3.95;;;1.83;;
73515;SDS011;61763;51.416;5.442;2023-08-01T13:24:50;5.43;;;1.80;;
73515;SDS011;61763;51.416;5.442;2023-08-01T13:27:17;4.00;;;1.77;;
73515;SDS011;61763;51.416;5.442;2023-08-01T13:29:42;4.30;;;1.67;;
73515;SDS011;61763;51.416;5.442;2023-08-01T13:32:07;4.03;;;0.82;;
73515;SDS011;61763;51.416;5.442;2023-08-01T13:34:33;2.63;;;1.15;;
73515;SDS011;61763;51.416;5.442;2023-08-01T13:36:58;3.22;;;1.25;;
73515;SDS011;61763;51.416;5.442;2023-08-01T13:39:23;4.53;;;1.10;;
73515;SDS011;61763;51.416;5.442;2023-08-01T13:41:50;5.22;;;1.75;;
73515;SDS011;61763;51.416;5.442;2023-08-01T13:44:16;4.00;;;0.70;;
73515;SDS011;61763;51.416;5.442;2023-08-01T13:46:41;3.58;;;1.05;;
73515;SDS011;61763;51.416;5.442;2023-08-01T13:49:07;4.30;;;1.77;;
73515;SDS011;61763;51.416;5.442;2023-08-01T13:51:32;5.38;;;1.48;;
73515;SDS011;61763;51.416;5.442;2023-08-01T13:53:58;3.05;;;0.70;;
73515;SDS011;61763;51.416;5.442;2023-08-01T13:56:24;4.00;;;3.17;;
73515;SDS011;61763;51.416;5.442;2023-08-01T13:58:50;4.78;;;1.33;;
73515;SDS011;61763;51.416;5.442;2023-08-01T14:01:17;3.00;;;1.35;;
73515;SDS011;61763;51.416;5.442;2023-08-01T14:03:43;5.05;;;1.83;;
73515;SDS011;61763;51.416;5.442;2023-08-01T14:06:10;4.15;;;0.65;;
73515;SDS011;61763;51.416;5.442;2023-08-01T14:08:37;5.93;;;1.40;;
73515;SDS011;61763;51.416;5.442;2023-08-01T14:11:04;5.43;;;1.88;;
73515;SDS011;61763;51.416;5.442;2023-08-01T14:13:31;4.43;;;0.57;;
73515;SDS011;61763;51.416;5.442;2023-08-01T14:15:57;4.03;;;0.88;;
73515;SDS011;61763;51.416;5.442;2023-08-01T14:18:22;3.53;;;2.35;;
73515;SDS011;61763;51.416;5.442;2023-08-01T14:20:48;3.90;;;0.70;;
73515;SDS011;61763;51.416;5.442;2023-08-01T14:23:13;4.10;;;1.80;;
73515;SDS011;61763;51.416;5.442;2023-08-01T14:25:39;3.22;;;1.00;;
73515;SDS011;61763;51.416;5.442;2023-08-01T14:28:05;2.95;;;0.85;;
73515;SDS011;61763;51.416;5.442;2023-08-01T14:30:30;2.58;;;0.93;;
73515;SDS011;61763;51.416;5.442;2023-08-01T14:32:59;2.70;;;0.63;;
73515;SDS011;61763;51.416;5.442;2023-08-01T14:35:28;3.95;;;1.65;;
73515;SDS011;61763;51.416;5.442;2023-08-01T14:37:53;5.00;;;0.68;;
73515;SDS011;61763;51.416;5.442;2023-08-01T14:40:20;4.40;;;0.70;;
73515;SDS011;61763;51.416;5.442;2023-08-01T14:42:48;3.58;;;1.50;;
73515;SDS011;61763;51.416;5.442;2023-08-01T14:45:14;4.22;;;1.38;;
73515;SDS011;61763;51.416;5.442;2023-08-01T14:47:41;4.63;;;1.60;;